createdAt,value
2023-08-06T00:01:51.929Z,19.30
2023-08-06T00:04:26.000Z,19.23
2023-08-06T00:06:58.554Z,19.24
2023-08-06T00:09:31.370Z,19.21
2023-08-06T00:12:04.744Z,19.24
2023-08-06T00:14:39.117Z,19.20
2023-08-06T00:17:12.008Z,19.16
2023-08-06T00:19:44.764Z,19.20
2023-08-06T00:22:17.430Z,19.24
2023-08-06T00:24:50.197Z,19.17
2023-08-06T00:27:23.322Z,19.14
2023-08-06T00:29:57.365Z,19.11
2023-08-06T00:32:30.239Z,19.13
2023-08-06T00:35:04.319Z,19.12
2023-08-06T00:37:37.135Z,19.08
2023-08-06T00:40:10.414Z,19.05
2023-08-06T00:42:45.323Z,19.07
2023-08-06T00:45:19.688Z,19.04
2023-08-06T00:47:52.393Z,19.01
2023-08-06T00:50:25.313Z,19.15
2023-08-06T00:52:58.411Z,19.11
2023-08-06T00:55:31.582Z,19.11
2023-08-06T00:58:04.584Z,19.07
2023-08-06T01:00:39.164Z,19.08
2023-08-06T01:03:12.181Z,19.00
2023-08-06T01:05:45.139Z,19.06
2023-08-06T01:08:38.465Z,19.04
2023-08-06T01:11:35.543Z,19.01
2023-08-06T01:14:16.626Z,19.04
2023-08-06T01:16:52.973Z,19.07
2023-08-06T01:19:27.735Z,19.07
2023-08-06T01:22:02.089Z,19.03
2023-08-06T01:24:35.348Z,19.02
2023-08-06T01:27:13.542Z,19.01
2023-08-06T01:29:53.273Z,18.98
2023-08-06T01:32:28.508Z,19.01
2023-08-06T01:35:03.350Z,18.96
2023-08-06T01:37:39.033Z,19.00
2023-08-06T01:40:12.905Z,19.04
2023-08-06T01:42:45.907Z,19.01
2023-08-06T01:45:20.020Z,18.97
2023-08-06T01:47:53.252Z,18.96
2023-08-06T01:50:26.368Z,18.97
2023-08-06T01:53:00.566Z,18.97
2023-08-06T01:55:33.652Z,19.01
2023-08-06T01:58:06.575Z,18.99
2023-08-06T02:00:39.901Z,18.96
2023-08-06T02:03:12.970Z,18.94
2023-08-06T02:05:47.580Z,18.91
2023-08-06T02:08:21.915Z,18.90
2023-08-06T02:10:55.110Z,18.93
2023-08-06T02:13:28.281Z,18.95
2023-08-06T02:16:01.364Z,18.92
2023-08-06T02:18:34.437Z,18.99
2023-08-06T02:21:07.110Z,18.92
2023-08-06T02:23:41.493Z,18.91
2023-08-06T02:26:14.485Z,18.93
2023-08-06T02:28:47.531Z,18.91
2023-08-06T02:31:21.887Z,18.91
2023-08-06T02:33:55.065Z,18.86
2023-08-06T02:36:30.862Z,18.92
2023-08-06T02:39:07.797Z,18.84
2023-08-06T02:41:41.885Z,18.81
2023-08-06T02:44:14.791Z,18.79
2023-08-06T02:46:48.004Z,18.85
2023-08-06T02:49:21.112Z,18.83
2023-08-06T02:51:54.860Z,18.78
2023-08-06T02:54:29.589Z,18.79
2023-08-06T02:57:02.542Z,18.79
2023-08-06T02:59:38.506Z,18.80
2023-08-06T03:02:16.264Z,18.82
2023-08-06T03:05:13.116Z,18.77
2023-08-06T03:07:50.440Z,18.68
2023-08-06T03:10:33.120Z,18.68
2023-08-06T03:13:09.359Z,18.67
2023-08-06T03:15:42.209Z,18.70
2023-08-06T03:18:17.068Z,18.67
2023-08-06T03:20:50.478Z,18.62
2023-08-06T03:23:24.045Z,18.53
2023-08-06T03:25:58.253Z,18.53
2023-08-06T03:28:31.291Z,18.63
2023-08-06T03:31:05.052Z,18.54
2023-08-06T03:33:46.856Z,18.48
2023-08-06T03:36:22.928Z,18.47
2023-08-06T03:38:56.878Z,18.41
2023-08-06T03:41:31.106Z,18.43
2023-08-06T03:44:05.136Z,18.43
2023-08-06T03:46:38.621Z,18.39
2023-08-06T03:49:13.681Z,18.43
2023-08-06T03:51:48.072Z,18.40
2023-08-06T03:54:21.028Z,18.43
2023-08-06T03:56:55.251Z,18.33
2023-08-06T03:59:28.133Z,18.37
2023-08-06T04:02:02.827Z,18.40
2023-08-06T04:04:35.626Z,18.35
2023-08-06T04:07:08.497Z,18.40
2023-08-06T04:09:57.600Z,18.43
2023-08-06T04:12:33.797Z,18.33
2023-08-06T04:15:08.084Z,18.34
2023-08-06T04:17:41.390Z,18.32
2023-08-06T04:20:14.158Z,18.34
2023-08-06T04:22:47.051Z,18.29
2023-08-06T04:25:22.197Z,18.31
2023-08-06T04:27:56.557Z,18.29
2023-08-06T04:30:30.483Z,18.22
2023-08-06T04:33:03.837Z,18.27
2023-08-06T04:35:36.839Z,18.22
2023-08-06T04:38:09.688Z,18.27
2023-08-06T04:40:43.311Z,18.32
2023-08-06T04:43:17.613Z,18.35
2023-08-06T04:45:51.699Z,18.27
2023-08-06T04:48:25.059Z,18.30
2023-08-06T04:50:57.925Z,18.23
2023-08-06T04:53:30.754Z,18.27
2023-08-06T04:56:03.672Z,18.22
2023-08-06T04:58:40.427Z,18.29
2023-08-06T05:01:13.548Z,18.24
2023-08-06T05:03:49.016Z,18.11
2023-08-06T05:06:21.926Z,18.14
2023-08-06T05:08:54.835Z,18.15
2023-08-06T05:11:27.719Z,18.15
2023-08-06T05:14:01.966Z,18.13
2023-08-06T05:16:35.020Z,18.14
2023-08-06T05:19:08.123Z,18.11
2023-08-06T05:21:41.220Z,18.05
2023-08-06T05:24:14.311Z,18.10
2023-08-06T05:26:48.900Z,18.11
2023-08-06T05:29:23.297Z,18.12
2023-08-06T05:31:56.504Z,18.11
2023-08-06T05:34:29.732Z,18.12
2023-08-06T05:37:02.656Z,18.11
2023-08-06T05:39:35.495Z,18.13
2023-08-06T05:42:09.331Z,18.13
2023-08-06T05:44:43.467Z,18.05
2023-08-06T05:47:16.551Z,18.07
2023-08-06T05:49:49.480Z,18.09
2023-08-06T05:52:25.494Z,18.08
2023-08-06T05:54:58.529Z,18.08
2023-08-06T05:57:31.166Z,18.06
2023-08-06T06:00:07.372Z,18.08
2023-08-06T06:02:45.566Z,18.13
2023-08-06T06:05:18.171Z,18.07
2023-08-06T06:07:51.067Z,18.12
2023-08-06T06:10:23.870Z,18.10
2023-08-06T06:12:56.692Z,18.07
2023-08-06T06:15:31.216Z,18.13
2023-08-06T06:18:04.348Z,18.07
2023-08-06T06:20:37.195Z,18.10
2023-08-06T06:23:10.161Z,18.12
2023-08-06T06:25:47.130Z,18.14
2023-08-06T06:28:20.592Z,18.15
2023-08-06T06:30:55.710Z,18.13
2023-08-06T06:33:28.949Z,18.11
2023-08-06T06:36:04.714Z,18.10
2023-08-06T06:38:38.229Z,18.11
2023-08-06T06:41:11.104Z,18.11
2023-08-06T06:43:44.823Z,18.15
2023-08-06T06:46:19.233Z,18.15
2023-08-06T06:48:52.334Z,18.18
2023-08-06T06:51:25.238Z,18.19
2023-08-06T06:54:00.480Z,18.21
2023-08-06T06:56:33.706Z,18.20
2023-08-06T06:59:06.943Z,18.17
2023-08-06T07:01:41.317Z,18.21
2023-08-06T07:04:14.295Z,18.12
2023-08-06T07:06:47.137Z,18.01
2023-08-06T07:09:19.971Z,18.13
2023-08-06T07:11:53.260Z,18.18
2023-08-06T07:14:27.902Z,18.07
2023-08-06T07:17:02.465Z,18.15
2023-08-06T07:19:35.272Z,18.18
2023-08-06T07:22:08.568Z,18.20
2023-08-06T07:24:41.577Z,18.20
2023-08-06T07:27:15.355Z,18.23
2023-08-06T07:29:49.175Z,18.12
2023-08-06T07:32:23.850Z,18.22
2023-08-06T07:35:00.596Z,18.28
2023-08-06T07:37:33.600Z,18.18
2023-08-06T07:40:09.806Z,18.18
2023-08-06T07:42:42.708Z,18.31
2023-08-06T07:45:16.655Z,18.45
2023-08-06T07:47:51.028Z,18.34
2023-08-06T07:50:23.923Z,18.43
2023-08-06T07:52:56.697Z,18.30
2023-08-06T07:55:29.634Z,18.36
2023-08-06T07:58:02.374Z,18.37
2023-08-06T08:00:35.354Z,18.25
2023-08-06T08:03:09.810Z,18.27
2023-08-06T08:05:43.185Z,18.43
2023-08-06T08:08:18.391Z,18.30
2023-08-06T08:10:51.228Z,18.27
2023-08-06T08:13:24.215Z,18.38
2023-08-06T08:15:59.198Z,18.42
2023-08-06T08:18:34.434Z,18.54
2023-08-06T08:21:07.892Z,18.31
2023-08-06T08:23:42.957Z,18.55
2023-08-06T08:26:15.793Z,18.58
2023-08-06T08:28:49.149Z,18.58
2023-08-06T08:31:22.235Z,18.59
2023-08-06T08:33:58.548Z,18.75
2023-08-06T08:36:32.973Z,18.84
2023-08-06T08:39:06.258Z,18.79
2023-08-06T08:41:42.262Z,18.95
2023-08-06T08:44:18.403Z,18.96
2023-08-06T08:46:52.954Z,18.77
2023-08-06T08:49:29.907Z,18.82
2023-08-06T08:52:06.710Z,18.87
2023-08-06T08:54:40.942Z,18.87
2023-08-06T08:57:15.131Z,19.00
2023-08-06T08:59:48.508Z,19.19
2023-08-06T09:02:25.453Z,19.30
2023-08-06T09:05:03.902Z,19.29
2023-08-06T09:07:43.733Z,19.25
2023-08-06T09:10:21.164Z,19.34
2023-08-06T09:12:55.346Z,19.21
2023-08-06T09:15:29.216Z,19.58
2023-08-06T09:18:02.341Z,19.38
2023-08-06T09:20:36.739Z,19.41
2023-08-06T09:23:11.364Z,19.97
2023-08-06T09:25:44.447Z,19.83
2023-08-06T09:28:17.282Z,19.74
2023-08-06T09:30:50.703Z,19.90
2023-08-06T09:33:27.880Z,19.82
2023-08-06T09:36:09.954Z,19.81
2023-08-06T09:38:43.171Z,20.04
2023-08-06T09:41:28.699Z,20.38
2023-08-06T09:44:02.612Z,20.01
2023-08-06T09:46:35.459Z,20.01
2023-08-06T09:49:09.496Z,20.02
2023-08-06T09:51:46.049Z,20.26
2023-08-06T09:54:27.420Z,20.29
2023-08-06T09:57:01.973Z,20.17
2023-08-06T09:59:35.171Z,20.42
2023-08-06T10:02:15.190Z,20.77
2023-08-06T10:04:55.070Z,20.92
2023-08-06T10:07:32.210Z,20.73
2023-08-06T10:10:05.954Z,21.22
2023-08-06T10:12:43.156Z,21.28
2023-08-06T10:15:19.716Z,20.77
2023-08-06T10:17:56.859Z,20.66
2023-08-06T10:20:35.369Z,20.98
2023-08-06T10:23:09.698Z,20.87
2023-08-06T10:25:43.864Z,20.80
2023-08-06T10:28:19.112Z,21.25
2023-08-06T10:30:53.358Z,21.03
2023-08-06T10:33:26.271Z,21.27
2023-08-06T10:36:05.849Z,21.68
2023-08-06T10:38:47.796Z,21.31
2023-08-06T10:41:25.979Z,21.91
2023-08-06T10:44:09.633Z,21.97
2023-08-06T10:46:42.602Z,21.74
2023-08-06T10:49:16.301Z,22.13
2023-08-06T10:51:51.800Z,22.28
2023-08-06T10:54:26.451Z,22.35
2023-08-06T10:56:59.579Z,22.48
2023-08-06T10:59:32.374Z,22.67
2023-08-06T11:02:05.718Z,22.62
2023-08-06T11:04:38.674Z,22.03
2023-08-06T11:07:12.012Z,22.49
2023-08-06T11:09:46.514Z,22.81
2023-08-06T11:12:20.563Z,23.12
2023-08-06T11:14:53.433Z,23.20
2023-08-06T11:17:26.944Z,23.31
2023-08-06T11:20:01.178Z,23.10
2023-08-06T11:22:34.121Z,23.26
2023-08-06T11:25:09.066Z,23.34
2023-08-06T11:27:41.839Z,23.18
2023-08-06T11:30:14.626Z,23.24
2023-08-06T11:32:48.256Z,23.07
2023-08-06T11:35:21.113Z,23.07
2023-08-06T11:37:54.015Z,23.00
2023-08-06T11:40:28.075Z,22.67
2023-08-06T11:43:01.247Z,22.94
2023-08-06T11:45:37.361Z,22.65
2023-08-06T11:48:10.551Z,22.86
2023-08-06T11:50:43.462Z,22.64
2023-08-06T11:53:17.036Z,22.79
2023-08-06T11:55:51.621Z,22.97
2023-08-06T11:58:24.383Z,22.82
2023-08-06T12:00:58.575Z,22.96
2023-08-06T12:03:32.572Z,22.82
2023-08-06T12:06:06.074Z,23.09
2023-08-06T12:08:39.257Z,23.14
2023-08-06T12:11:13.474Z,23.38
2023-08-06T12:13:46.420Z,23.04
2023-08-06T12:16:20.049Z,23.40
2023-08-06T12:18:53.118Z,23.56
2023-08-06T12:21:25.852Z,23.68
2023-08-06T12:23:58.559Z,23.68
2023-08-06T12:26:32.617Z,23.81
2023-08-06T12:29:05.481Z,23.68
2023-08-06T12:31:38.515Z,23.79
2023-08-06T12:34:11.700Z,23.97
2023-08-06T12:36:44.721Z,23.81
2023-08-06T12:39:17.482Z,23.82
2023-08-06T12:41:51.756Z,24.05
2023-08-06T12:44:25.299Z,23.76
2023-08-06T12:46:58.343Z,23.78
2023-08-06T12:49:33.241Z,23.76
2023-08-06T12:52:08.582Z,23.79
2023-08-06T12:54:41.581Z,23.78
2023-08-06T12:57:15.911Z,23.75
2023-08-06T12:59:49.314Z,23.68
2023-08-06T13:02:22.280Z,23.52
2023-08-06T13:04:54.870Z,23.41
2023-08-06T13:07:27.778Z,23.38
2023-08-06T13:10:00.433Z,23.20
2023-08-06T13:12:36.199Z,23.14
2023-08-06T13:15:10.850Z,23.02
2023-08-06T13:17:44.533Z,22.98
2023-08-06T13:20:20.269Z,22.84
2023-08-06T13:22:54.818Z,22.77
2023-08-06T13:25:27.950Z,22.65
2023-08-06T13:28:02.191Z,22.51
2023-08-06T13:30:36.654Z,22.45
2023-08-06T13:33:09.493Z,22.32
2023-08-06T13:35:42.292Z,22.24
2023-08-06T13:38:15.075Z,22.20
2023-08-06T13:40:48.069Z,22.09
2023-08-06T13:43:22.213Z,22.02
2023-08-06T13:45:55.016Z,21.92
2023-08-06T13:48:28.021Z,21.86
2023-08-06T13:51:01.089Z,21.78
2023-08-06T13:53:33.896Z,21.74
2023-08-06T13:56:06.839Z,21.62
2023-08-06T13:58:41.042Z,21.66
2023-08-06T14:01:14.494Z,21.55
2023-08-06T14:03:49.033Z,21.56
2023-08-06T14:06:22.129Z,21.47
2023-08-06T14:08:56.169Z,21.34
2023-08-06T14:11:29.497Z,21.36
2023-08-06T14:14:04.644Z,21.31
2023-08-06T14:16:41.817Z,21.33
2023-08-06T14:19:14.551Z,21.31
2023-08-06T14:21:48.410Z,21.29
2023-08-06T14:24:24.264Z,21.18
2023-08-06T14:27:00.619Z,21.21
2023-08-06T14:29:35.148Z,21.15
2023-08-06T14:32:09.283Z,21.19
2023-08-06T14:34:42.190Z,21.13
2023-08-06T14:37:17.042Z,21.14
2023-08-06T14:39:51.432Z,21.09
2023-08-06T14:42:24.284Z,21.00
2023-08-06T14:44:59.000Z,20.98
2023-08-06T14:47:33.425Z,20.95
2023-08-06T14:50:07.184Z,20.85
2023-08-06T14:52:40.827Z,20.79
2023-08-06T14:55:13.842Z,20.82
2023-08-06T14:57:47.189Z,20.73
2023-08-06T15:00:22.798Z,20.65
2023-08-06T15:02:55.755Z,20.58
2023-08-06T15:05:28.745Z,20.57
2023-08-06T15:08:02.173Z,20.52
2023-08-06T15:10:34.984Z,20.50
2023-08-06T15:13:07.968Z,20.49
2023-08-06T15:15:43.834Z,20.51
2023-08-06T15:18:16.652Z,20.49
2023-08-06T15:20:49.852Z,20.41
2023-08-06T15:23:23.586Z,20.37
2023-08-06T15:25:56.887Z,20.37
2023-08-06T15:28:29.924Z,20.32
2023-08-06T15:31:06.962Z,20.31
2023-08-06T15:33:39.960Z,20.32
2023-08-06T15:36:12.741Z,20.32
2023-08-06T15:38:45.694Z,20.32
2023-08-06T15:41:18.707Z,20.31
2023-08-06T15:43:52.005Z,20.29
2023-08-06T15:46:26.462Z,20.20
2023-08-06T15:48:59.352Z,20.16
2023-08-06T15:51:32.606Z,20.15
2023-08-06T15:54:05.622Z,20.14
2023-08-06T15:56:38.604Z,20.13
2023-08-06T15:59:24.411Z,20.13
2023-08-06T16:01:59.421Z,20.06
2023-08-06T16:04:33.103Z,20.03
2023-08-06T16:07:06.284Z,19.99
2023-08-06T16:09:39.122Z,20.02
2023-08-06T16:12:12.030Z,19.99
2023-08-06T16:14:44.730Z,19.96
2023-08-06T16:17:20.623Z,19.95
2023-08-06T16:19:55.484Z,19.91
2023-08-06T16:22:28.368Z,19.91
2023-08-06T16:25:01.206Z,19.87
2023-08-06T16:27:34.264Z,19.88
2023-08-06T16:30:07.828Z,19.86
2023-08-06T16:32:41.983Z,19.93
2023-08-06T16:35:15.974Z,19.92
2023-08-06T16:37:49.598Z,19.75
2023-08-06T16:40:22.682Z,19.78
2023-08-06T16:42:55.487Z,19.83
2023-08-06T16:45:28.258Z,19.79
2023-08-06T16:48:02.644Z,19.74
2023-08-06T16:50:35.619Z,19.70
2023-08-06T16:53:08.677Z,19.70
2023-08-06T16:55:41.893Z,19.60
2023-08-06T16:58:14.841Z,19.63
2023-08-06T17:00:48.083Z,19.54
2023-08-06T17:03:22.408Z,19.48
2023-08-06T17:05:55.514Z,19.50
2023-08-06T17:08:30.981Z,19.51
2023-08-06T17:11:04.328Z,19.35
2023-08-06T17:13:37.352Z,19.35
2023-08-06T17:16:10.161Z,19.39
2023-08-06T17:18:44.985Z,19.35
2023-08-06T17:21:17.881Z,19.33
2023-08-06T17:23:50.841Z,19.34
2023-08-06T17:26:23.525Z,19.27
2023-08-06T17:28:56.380Z,19.35
2023-08-06T17:31:29.519Z,19.25
2023-08-06T17:34:03.868Z,19.18
2023-08-06T17:36:36.818Z,19.16
2023-08-06T17:39:09.627Z,19.18
2023-08-06T17:41:44.466Z,19.20
2023-08-06T17:44:19.004Z,19.13
2023-08-06T17:46:52.037Z,19.10
2023-08-06T17:49:26.148Z,19.11
2023-08-06T17:52:00.767Z,19.13
2023-08-06T17:54:33.757Z,19.09
2023-08-06T17:57:07.269Z,19.13
2023-08-06T17:59:40.213Z,19.07
2023-08-06T18:02:13.366Z,18.97
2023-08-06T18:04:48.732Z,19.00
2023-08-06T18:07:21.901Z,18.97
2023-08-06T18:09:54.891Z,19.00
2023-08-06T18:12:27.944Z,18.97
2023-08-06T18:15:00.738Z,18.88
2023-08-06T18:17:33.719Z,18.94
2023-08-06T18:20:09.024Z,18.93
2023-08-06T18:22:42.065Z,18.85
2023-08-06T18:25:14.838Z,18.87
2023-08-06T18:27:48.190Z,18.87
2023-08-06T18:30:21.229Z,18.81
2023-08-06T18:32:55.701Z,18.82
2023-08-06T18:35:30.579Z,18.80
2023-08-06T18:38:04.348Z,18.71
2023-08-06T18:40:37.773Z,18.65
2023-08-06T18:43:10.763Z,18.71
2023-08-06T18:45:43.490Z,18.69
2023-08-06T18:48:17.116Z,18.71
2023-08-06T18:50:51.679Z,18.67
2023-08-06T18:53:24.821Z,18.63
2023-08-06T18:55:58.813Z,18.65
2023-08-06T18:58:33.100Z,18.63
2023-08-06T19:01:06.172Z,18.65
2023-08-06T19:03:38.981Z,18.64
2023-08-06T19:06:13.356Z,18.56
2023-08-06T19:08:46.304Z,18.58
2023-08-06T19:11:19.128Z,18.52
2023-08-06T19:13:52.086Z,18.48
2023-08-06T19:16:25.515Z,18.48
2023-08-06T19:19:00.438Z,18.37
2023-08-06T19:21:34.791Z,18.38
2023-08-06T19:24:07.966Z,18.38
2023-08-06T19:26:41.323Z,18.34
2023-08-06T19:29:15.803Z,18.42
2023-08-06T19:32:05.202Z,18.35
2023-08-06T19:34:39.069Z,18.36
2023-08-06T19:37:14.096Z,18.36
2023-08-06T19:39:47.086Z,18.29
2023-08-06T19:42:21.690Z,18.31
2023-08-06T19:44:54.712Z,18.28
2023-08-06T19:47:27.958Z,18.19
2023-08-06T19:50:01.510Z,18.19
2023-08-06T19:52:40.039Z,18.11
2023-08-06T19:55:14.656Z,18.17
2023-08-06T19:57:48.195Z,18.14
2023-08-06T20:00:21.738Z,18.16
2023-08-06T20:02:55.169Z,18.16
2023-08-06T20:05:29.105Z,18.18
2023-08-06T20:08:03.902Z,18.11
2023-08-06T20:10:36.847Z,18.16
2023-08-06T20:13:10.239Z,18.14
2023-08-06T20:15:43.536Z,18.04
2023-08-06T20:18:18.567Z,18.07
2023-08-06T20:20:51.842Z,18.05
2023-08-06T20:23:27.913Z,18.05
2023-08-06T20:26:01.065Z,18.06
2023-08-06T20:28:33.972Z,18.07
2023-08-06T20:31:08.373Z,18.02
2023-08-06T20:33:41.454Z,18.04
2023-08-06T20:36:14.194Z,18.01
2023-08-06T20:38:48.714Z,17.98
2023-08-06T20:41:21.868Z,18.03
2023-08-06T20:43:54.630Z,18.09
2023-08-06T20:46:27.529Z,17.99
2023-08-06T20:49:00.433Z,17.95
2023-08-06T20:51:33.379Z,17.90
2023-08-06T20:54:07.753Z,17.88
2023-08-06T20:56:41.030Z,17.95
2023-08-06T20:59:14.021Z,17.90
2023-08-06T21:01:47.230Z,17.96
2023-08-06T21:04:20.325Z,17.97
2023-08-06T21:06:53.125Z,17.95
2023-08-06T21:09:27.448Z,17.96
2023-08-06T21:12:00.460Z,17.98
2023-08-06T21:14:33.187Z,17.92
2023-08-06T21:17:06.888Z,17.94
2023-08-06T21:19:39.821Z,17.89
2023-08-06T21:22:12.913Z,18.00
2023-08-06T21:24:47.262Z,17.97
2023-08-06T21:27:20.136Z,17.92
2023-08-06T21:29:53.210Z,17.93
2023-08-06T21:32:26.394Z,17.98
2023-08-06T21:35:00.757Z,17.98
2023-08-06T21:37:34.064Z,17.93
2023-08-06T21:40:09.874Z,17.99
2023-08-06T21:42:45.932Z,17.89
2023-08-06T21:45:19.067Z,17.88
2023-08-06T21:47:52.080Z,17.87
2023-08-06T21:50:25.226Z,17.87
2023-08-06T21:52:58.542Z,17.85
2023-08-06T21:55:35.980Z,17.80
2023-08-06T21:58:08.962Z,17.78
2023-08-06T22:00:41.866Z,17.76
2023-08-06T22:03:15.576Z,17.76
2023-08-06T22:05:48.984Z,17.75
2023-08-06T22:08:22.599Z,17.74
2023-08-06T22:10:57.973Z,17.77
2023-08-06T22:13:31.314Z,17.81
2023-08-06T22:16:05.708Z,17.80
2023-08-06T22:18:38.729Z,17.71
2023-08-06T22:21:11.437Z,17.77
2023-08-06T22:23:44.777Z,17.75
2023-08-06T22:26:18.986Z,17.75
2023-08-06T22:29:01.084Z,17.76
2023-08-06T22:31:34.849Z,17.72
2023-08-06T22:34:07.823Z,17.72
2023-08-06T22:36:40.810Z,17.71
2023-08-06T22:39:13.751Z,17.76
2023-08-06T22:41:47.985Z,17.69
2023-08-06T22:44:20.892Z,17.70
2023-08-06T22:46:53.875Z,17.72
2023-08-06T22:49:26.988Z,17.72
2023-08-06T22:52:00.269Z,17.67
2023-08-06T22:54:33.407Z,17.69
2023-08-06T22:57:10.629Z,17.68
2023-08-06T22:59:43.612Z,17.69
2023-08-06T23:02:16.618Z,17.62
2023-08-06T23:04:49.618Z,17.63
2023-08-06T23:07:22.884Z,17.63
2023-08-06T23:09:55.861Z,17.64
2023-08-06T23:12:30.022Z,17.61
2023-08-06T23:15:02.987Z,17.53
2023-08-06T23:17:35.911Z,17.60
2023-08-06T23:20:10.182Z,17.59
2023-08-06T23:22:43.587Z,17.63
2023-08-06T23:25:16.568Z,17.60
2023-08-06T23:27:50.753Z,17.62
2023-08-06T23:30:23.843Z,17.57
2023-08-06T23:32:56.927Z,17.51
2023-08-06T23:35:30.097Z,17.54
2023-08-06T23:38:03.227Z,17.53
2023-08-06T23:40:36.270Z,17.51
2023-08-06T23:43:11.225Z,17.52
2023-08-06T23:45:44.305Z,17.48
2023-08-06T23:48:17.708Z,17.52
2023-08-06T23:50:50.670Z,17.50
2023-08-06T23:53:23.614Z,17.44
2023-08-06T23:55:56.369Z,17.39
2023-08-06T23:58:30.699Z,17.43
